createdAt,value
2022-11-07T00:00:27.279Z,4.70
2022-11-07T00:01:27.305Z,4.00
2022-11-07T00:02:27.327Z,4.00
2022-11-07T00:03:27.261Z,4.20
2022-11-07T00:04:28.233Z,4.30
2022-11-07T00:05:27.250Z,4.30
2022-11-07T00:06:27.209Z,4.20
2022-11-07T00:07:27.207Z,4.10
2022-11-07T00:08:27.213Z,4.00
2022-11-07T00:09:27.187Z,3.90
2022-11-07T00:10:27.174Z,4.10
2022-11-07T00:11:27.160Z,4.20
2022-11-07T00:12:27.152Z,4.00
2022-11-07T00:13:27.167Z,4.10
2022-11-07T00:14:27.138Z,4.00
2022-11-07T00:15:27.124Z,3.90
2022-11-07T00:16:27.117Z,3.90
2022-11-07T00:17:27.111Z,3.90
2022-11-07T00:18:27.118Z,4.10
2022-11-07T00:19:27.094Z,3.90
2022-11-07T00:20:27.078Z,4.30
2022-11-07T00:21:27.072Z,4.40
2022-11-07T00:22:27.059Z,3.80
2022-11-07T00:23:27.069Z,3.90
2022-11-07T00:24:27.077Z,3.90
2022-11-07T00:25:27.061Z,3.90
2022-11-07T00:26:27.028Z,3.70
2022-11-07T00:27:27.103Z,3.90
2022-11-07T00:28:27.015Z,3.70
2022-11-07T00:29:27.015Z,4.40
2022-11-07T00:30:27.004Z,4.10
2022-11-07T00:31:26.984Z,4.20
2022-11-07T00:32:26.993Z,3.80
2022-11-07T00:33:27.015Z,3.90
2022-11-07T00:34:26.955Z,3.90
2022-11-07T00:35:26.937Z,4.00
2022-11-07T00:36:26.932Z,3.80
2022-11-07T00:37:26.923Z,3.80
2022-11-07T00:38:26.925Z,3.70
2022-11-07T00:39:26.916Z,4.10
2022-11-07T00:40:26.889Z,3.80
2022-11-07T00:41:26.883Z,3.80
2022-11-07T00:42:26.873Z,4.10
2022-11-07T00:43:26.873Z,3.70
2022-11-07T00:44:26.854Z,3.80
2022-11-07T00:45:26.846Z,3.90
2022-11-07T00:46:26.845Z,3.80
2022-11-07T00:47:26.823Z,3.80
2022-11-07T00:48:26.823Z,3.80
2022-11-07T00:49:26.800Z,3.70
2022-11-07T00:50:26.791Z,4.10
2022-11-07T00:51:26.785Z,3.80
2022-11-07T00:52:26.769Z,3.90
2022-11-07T00:53:26.767Z,4.00
2022-11-07T00:54:26.763Z,3.80
2022-11-07T00:55:26.742Z,3.80
2022-11-07T00:56:26.732Z,3.90
2022-11-07T00:57:26.721Z,4.00
2022-11-07T00:58:26.729Z,4.20
2022-11-07T00:59:26.702Z,3.80
2022-11-07T01:00:26.686Z,4.00
2022-11-07T01:01:26.783Z,3.90
2022-11-07T01:02:26.853Z,4.10
2022-11-07T01:03:26.664Z,3.90
2022-11-07T01:04:26.652Z,3.80
2022-11-07T01:05:26.640Z,3.70
2022-11-07T01:06:26.632Z,4.20
2022-11-07T01:07:26.621Z,3.90
2022-11-07T01:08:26.627Z,4.00
2022-11-07T01:09:26.604Z,4.00
2022-11-07T01:10:26.588Z,3.90
2022-11-07T01:11:26.583Z,3.60
2022-11-07T01:12:26.567Z,3.60
2022-11-07T01:13:26.584Z,3.90
2022-11-07T01:14:26.556Z,3.70
2022-11-07T01:15:26.540Z,3.90
2022-11-07T01:16:26.527Z,3.70
2022-11-07T01:17:27.526Z,3.60
2022-11-07T01:18:26.534Z,3.90
2022-11-07T01:19:26.502Z,3.80
2022-11-07T01:20:26.499Z,3.60
2022-11-07T01:21:26.487Z,3.90
2022-11-07T01:22:26.474Z,3.90
2022-11-07T01:23:26.504Z,4.00
2022-11-07T01:24:26.460Z,3.80
2022-11-07T01:25:26.452Z,3.80
2022-11-07T01:26:26.434Z,3.90
2022-11-07T01:27:26.421Z,3.90
2022-11-07T01:28:26.434Z,3.80
2022-11-07T01:29:26.412Z,3.80
2022-11-07T01:30:26.404Z,3.90
2022-11-07T01:31:26.381Z,4.00
2022-11-07T01:32:26.383Z,4.00
2022-11-07T01:33:26.491Z,3.90
2022-11-07T01:34:26.360Z,3.70
2022-11-07T01:35:26.361Z,3.70
2022-11-07T01:36:26.338Z,4.00
2022-11-07T01:37:26.338Z,3.70
2022-11-07T01:38:26.347Z,3.70
2022-11-07T01:39:26.320Z,3.90
2022-11-07T01:40:26.303Z,3.80
2022-11-07T01:41:26.283Z,4.00
2022-11-07T01:42:27.282Z,3.80
2022-11-07T01:43:26.307Z,3.50
2022-11-07T01:44:26.267Z,3.80
2022-11-07T01:45:26.255Z,3.50
2022-11-07T01:46:26.243Z,3.80
2022-11-07T01:47:26.228Z,3.80
2022-11-07T01:48:26.237Z,3.70
2022-11-07T01:49:26.213Z,3.60
2022-11-07T01:50:26.207Z,3.90
2022-11-07T01:51:26.191Z,3.70
2022-11-07T01:52:26.194Z,3.50
2022-11-07T01:53:26.192Z,3.60
2022-11-07T01:54:26.160Z,3.50
2022-11-07T01:55:26.147Z,3.70
2022-11-07T01:56:26.145Z,3.90
2022-11-07T01:57:26.142Z,3.70
2022-11-07T01:58:26.143Z,3.60
2022-11-07T01:59:26.119Z,3.40
2022-11-07T02:00:26.106Z,3.60
2022-11-07T02:01:26.185Z,3.60
2022-11-07T02:02:26.214Z,3.50
2022-11-07T02:03:26.076Z,3.40
2022-11-07T02:04:26.066Z,3.50
2022-11-07T02:05:26.060Z,3.50
2022-11-07T02:06:26.053Z,3.60
2022-11-07T02:07:26.116Z,3.20
2022-11-07T02:08:26.044Z,3.50
2022-11-07T02:09:26.028Z,3.60
2022-11-07T02:10:26.011Z,3.60
2022-11-07T02:11:25.994Z,3.30
2022-11-07T02:12:25.991Z,3.40
2022-11-07T02:13:25.989Z,3.50
2022-11-07T02:14:26.976Z,3.60
2022-11-07T02:15:25.964Z,3.40
2022-11-07T02:16:25.952Z,3.50
2022-11-07T02:17:25.944Z,3.50
2022-11-07T02:18:25.951Z,3.20
2022-11-07T02:19:25.916Z,3.50
2022-11-07T02:20:25.909Z,3.50
2022-11-07T02:21:25.906Z,3.40
2022-11-07T02:22:25.908Z,3.40
2022-11-07T02:23:25.900Z,3.50
2022-11-07T02:24:25.863Z,3.50
2022-11-07T02:25:26.868Z,3.70
2022-11-07T02:26:25.855Z,3.40
2022-11-07T02:27:25.841Z,3.50
2022-11-07T02:28:25.832Z,3.40
2022-11-07T02:29:25.847Z,3.60
2022-11-07T02:30:25.821Z,3.70
2022-11-07T02:31:25.798Z,3.20
2022-11-07T02:32:25.796Z,3.40
2022-11-07T02:33:25.789Z,3.70
2022-11-07T02:34:25.792Z,3.40
2022-11-07T02:35:25.767Z,3.30
2022-11-07T02:36:25.754Z,3.50
2022-11-07T02:37:25.748Z,3.60
2022-11-07T02:38:25.742Z,3.60
2022-11-07T02:39:25.732Z,3.50
2022-11-07T02:40:25.718Z,3.70
2022-11-07T02:41:25.709Z,3.50
2022-11-07T02:42:25.690Z,3.50
2022-11-07T02:43:25.683Z,3.70
2022-11-07T02:44:25.684Z,3.60
2022-11-07T02:45:26.672Z,3.80
2022-11-07T02:46:25.644Z,3.60
2022-11-07T02:47:25.658Z,3.40
2022-11-07T02:48:25.640Z,3.50
2022-11-07T02:49:25.655Z,3.60
2022-11-07T02:50:25.614Z,3.50
2022-11-07T02:51:25.609Z,3.60
2022-11-07T02:52:25.636Z,3.70
2022-11-07T02:53:25.603Z,3.50
2022-11-07T02:54:25.599Z,3.70
2022-11-07T02:55:25.570Z,3.90
2022-11-07T02:56:25.568Z,3.40
2022-11-07T02:57:25.555Z,3.90
2022-11-07T02:58:25.588Z,3.50
2022-11-07T02:59:27.116Z,3.90
2022-11-07T03:00:26.524Z,3.60
2022-11-07T03:01:25.635Z,4.00
2022-11-07T03:02:25.559Z,3.70
2022-11-07T03:03:25.499Z,3.60
2022-11-07T03:04:25.511Z,3.60
2022-11-07T03:05:25.477Z,3.60
2022-11-07T03:06:25.469Z,3.50
2022-11-07T03:07:25.455Z,3.70
2022-11-07T03:08:25.451Z,3.60
2022-11-07T03:09:25.454Z,3.80
2022-11-07T03:10:25.429Z,3.60
2022-11-07T03:11:25.423Z,3.50
2022-11-07T03:12:25.420Z,3.50
2022-11-07T03:13:25.405Z,3.60
2022-11-07T03:14:25.443Z,4.00
2022-11-07T03:15:25.388Z,3.40
2022-11-07T03:16:25.390Z,3.80
2022-11-07T03:17:25.375Z,3.70
2022-11-07T03:18:25.345Z,4.00
2022-11-07T03:19:25.364Z,3.70
2022-11-07T03:20:25.334Z,3.50
2022-11-07T03:21:25.327Z,3.70
2022-11-07T03:22:25.325Z,3.60
2022-11-07T03:23:25.310Z,3.70
2022-11-07T03:24:25.333Z,3.60
2022-11-07T03:25:25.294Z,3.60
2022-11-07T03:26:25.280Z,3.80
2022-11-07T03:27:25.269Z,3.70
2022-11-07T03:28:25.259Z,3.60
2022-11-07T03:29:25.265Z,3.50
2022-11-07T03:30:25.239Z,3.40
2022-11-07T03:31:25.224Z,3.60
2022-11-07T03:32:25.224Z,3.70
2022-11-07T03:33:25.208Z,3.70
2022-11-07T03:34:25.211Z,3.60
2022-11-07T03:35:25.184Z,3.70
2022-11-07T03:36:25.179Z,3.90
2022-11-07T03:37:25.169Z,3.80
2022-11-07T03:38:25.154Z,3.80
2022-11-07T03:39:26.074Z,3.90
2022-11-07T03:40:25.131Z,3.90
2022-11-07T03:41:25.118Z,3.80
2022-11-07T03:42:25.108Z,4.20
2022-11-07T03:43:25.100Z,4.10
2022-11-07T03:44:25.108Z,3.70
2022-11-07T03:45:25.089Z,4.20
2022-11-07T03:46:25.076Z,4.10
2022-11-07T03:47:25.070Z,4.00
2022-11-07T03:48:25.060Z,4.20
2022-11-07T03:49:25.058Z,4.00
2022-11-07T03:50:25.030Z,4.00
2022-11-07T03:51:25.026Z,4.00
2022-11-07T03:52:25.017Z,3.80
2022-11-07T03:53:26.201Z,3.90
2022-11-07T03:54:26.016Z,4.00
2022-11-07T03:55:24.975Z,4.20
2022-11-07T03:56:24.973Z,3.90
2022-11-07T03:57:24.967Z,4.20
2022-11-07T03:58:24.959Z,4.30
2022-11-07T03:59:24.955Z,4.10
2022-11-07T04:00:24.936Z,4.30
2022-11-07T04:01:25.091Z,4.20
2022-11-07T04:02:25.045Z,3.90
2022-11-07T04:03:24.898Z,4.30
2022-11-07T04:04:24.915Z,4.10
2022-11-07T04:05:24.889Z,4.10
2022-11-07T04:06:24.888Z,4.70
2022-11-07T04:07:24.869Z,4.40
2022-11-07T04:08:24.854Z,4.60
2022-11-07T04:09:24.863Z,4.50
2022-11-07T04:10:24.835Z,4.50
2022-11-07T04:11:24.824Z,4.50
2022-11-07T04:12:24.815Z,4.30
2022-11-07T04:13:24.811Z,4.20
2022-11-07T04:14:24.811Z,4.10
2022-11-07T04:15:24.866Z,4.10
2022-11-07T04:16:24.772Z,4.00
2022-11-07T04:17:24.766Z,4.30
2022-11-07T04:18:24.752Z,4.40
2022-11-07T04:19:24.765Z,4.10
2022-11-07T04:20:24.735Z,3.90
2022-11-07T04:21:24.711Z,4.30
2022-11-07T04:22:25.711Z,4.30
2022-11-07T04:23:24.707Z,4.20
2022-11-07T04:24:24.716Z,3.80
2022-11-07T04:25:24.682Z,4.40
2022-11-07T04:26:24.681Z,4.20
2022-11-07T04:27:24.651Z,4.30
2022-11-07T04:28:24.652Z,4.20
2022-11-07T04:29:24.664Z,4.30
2022-11-07T04:30:24.647Z,4.10
2022-11-07T04:31:24.619Z,4.20
2022-11-07T04:32:24.608Z,4.50
2022-11-07T04:33:24.608Z,4.60
2022-11-07T04:34:24.615Z,4.40
2022-11-07T04:35:24.576Z,4.50
2022-11-07T04:36:24.582Z,4.60
2022-11-07T04:37:24.557Z,4.40
2022-11-07T04:38:24.556Z,4.60
2022-11-07T04:39:24.559Z,4.60
2022-11-07T04:40:24.532Z,4.70
2022-11-07T04:41:24.523Z,4.60
2022-11-07T04:42:24.524Z,4.40
2022-11-07T04:43:24.499Z,4.50
2022-11-07T04:44:24.511Z,4.40
2022-11-07T04:45:24.484Z,5.00
2022-11-07T04:46:24.474Z,4.50
2022-11-07T04:47:24.457Z,4.30
2022-11-07T04:48:24.455Z,4.40
2022-11-07T04:49:24.465Z,4.30
2022-11-07T04:50:24.438Z,4.30
2022-11-07T04:51:24.417Z,4.70
2022-11-07T04:52:24.415Z,4.40
2022-11-07T04:53:24.406Z,4.70
2022-11-07T04:54:24.417Z,4.50
2022-11-07T04:55:24.392Z,4.60
2022-11-07T04:56:24.374Z,4.70
2022-11-07T04:57:24.389Z,4.60
2022-11-07T04:58:24.361Z,5.10
2022-11-07T04:59:24.363Z,4.90
2022-11-07T05:00:24.339Z,4.70
2022-11-07T05:01:24.348Z,4.90
2022-11-07T05:02:24.431Z,4.60
2022-11-07T05:03:24.368Z,5.30
2022-11-07T05:04:24.316Z,5.20
2022-11-07T05:05:24.284Z,5.00
2022-11-07T05:06:24.273Z,4.80
2022-11-07T05:07:24.268Z,5.00
2022-11-07T05:08:24.256Z,5.20
2022-11-07T05:09:24.262Z,4.80
2022-11-07T05:10:24.236Z,5.00
2022-11-07T05:11:24.227Z,5.10
2022-11-07T05:12:24.216Z,5.20
2022-11-07T05:13:24.208Z,5.40
2022-11-07T05:14:24.221Z,4.80
2022-11-07T05:15:24.190Z,5.00
2022-11-07T05:16:24.173Z,5.00
2022-11-07T05:17:27.844Z,4.70
2022-11-07T05:18:25.163Z,4.90
2022-11-07T05:19:24.166Z,4.80
2022-11-07T05:20:24.140Z,5.00
2022-11-07T05:21:24.134Z,4.90
2022-11-07T05:22:24.121Z,5.10
2022-11-07T05:23:24.107Z,4.80
2022-11-07T05:24:24.119Z,4.80
2022-11-07T05:25:24.094Z,4.70
2022-11-07T05:26:24.085Z,4.90
2022-11-07T05:27:24.064Z,5.00
2022-11-07T05:28:33.692Z,5.00
2022-11-07T05:29:26.071Z,5.00
2022-11-07T05:30:24.038Z,5.10
2022-11-07T05:31:24.031Z,4.90
2022-11-07T05:32:24.019Z,5.10
2022-11-07T05:33:24.008Z,4.70
2022-11-07T05:34:24.021Z,4.90
2022-11-07T05:35:23.988Z,5.00
2022-11-07T05:36:24.007Z,4.60
2022-11-07T05:37:23.972Z,5.10
2022-11-07T05:38:23.952Z,5.10
2022-11-07T05:39:23.975Z,5.10
2022-11-07T05:40:23.948Z,4.80
2022-11-07T05:41:23.933Z,5.40
2022-11-07T05:42:23.921Z,4.50
2022-11-07T05:43:23.908Z,5.10
2022-11-07T05:44:23.935Z,4.90
2022-11-07T05:45:23.899Z,4.70
2022-11-07T05:46:23.917Z,4.80
2022-11-07T05:47:23.870Z,4.90
2022-11-07T05:48:24.862Z,4.70
2022-11-07T05:49:23.876Z,4.90
2022-11-07T05:50:23.836Z,5.40
2022-11-07T05:51:23.830Z,4.80
2022-11-07T05:52:23.826Z,5.10
2022-11-07T05:53:23.838Z,4.80
2022-11-07T05:54:23.821Z,4.90
2022-11-07T05:55:23.790Z,5.00
2022-11-07T05:56:23.810Z,5.30
2022-11-07T05:57:23.773Z,5.20
2022-11-07T05:58:23.766Z,5.50
2022-11-07T05:59:23.772Z,5.60
2022-11-07T06:00:23.747Z,5.40
2022-11-07T06:01:23.776Z,5.40
2022-11-07T06:02:23.862Z,5.80
2022-11-07T06:03:23.836Z,5.40
2022-11-07T06:04:23.724Z,5.20
2022-11-07T06:05:24.413Z,5.80
2022-11-07T06:06:24.676Z,5.30
2022-11-07T06:07:23.805Z,5.30
2022-11-07T06:08:23.668Z,5.30
2022-11-07T06:09:23.677Z,5.20
2022-11-07T06:10:23.639Z,5.50
2022-11-07T06:11:23.664Z,5.60
2022-11-07T06:12:23.632Z,5.90
2022-11-07T06:13:23.614Z,5.40
2022-11-07T06:14:23.617Z,5.50
2022-11-07T06:15:23.595Z,5.30
2022-11-07T06:16:23.590Z,5.30
2022-11-07T06:17:23.601Z,5.20
2022-11-07T06:18:23.565Z,5.30
2022-11-07T06:19:23.575Z,5.20
2022-11-07T06:20:23.561Z,5.50
2022-11-07T06:21:23.546Z,5.10
2022-11-07T06:22:23.525Z,5.10
2022-11-07T06:23:23.522Z,5.60
2022-11-07T06:24:23.533Z,5.30
2022-11-07T06:25:23.500Z,5.60
2022-11-07T06:26:23.495Z,5.60
2022-11-07T06:27:23.478Z,5.20
2022-11-07T06:28:23.477Z,5.30
2022-11-07T06:29:23.478Z,5.30
2022-11-07T06:30:23.442Z,5.50
2022-11-07T06:31:23.443Z,5.10
2022-11-07T06:32:23.429Z,5.50
2022-11-07T06:33:23.428Z,5.70
2022-11-07T06:34:23.422Z,5.80
2022-11-07T06:35:23.403Z,5.10
2022-11-07T06:36:23.402Z,5.60
2022-11-07T06:37:23.399Z,5.10
2022-11-07T06:38:23.379Z,5.50
2022-11-07T06:39:23.378Z,5.10
2022-11-07T06:40:27.073Z,5.20
2022-11-07T06:41:55.745Z,5.20
2022-11-07T06:42:23.327Z,5.10
2022-11-07T06:43:23.328Z,5.40
2022-11-07T06:44:23.343Z,5.10
2022-11-07T06:45:23.308Z,5.40
2022-11-07T06:46:23.299Z,5.30
2022-11-07T06:47:23.288Z,5.10
2022-11-07T06:48:23.276Z,5.00
2022-11-07T06:49:23.279Z,5.40
2022-11-07T06:50:23.247Z,4.90
2022-11-07T06:51:23.251Z,5.10
2022-11-07T06:52:23.240Z,5.30
2022-11-07T06:53:23.223Z,5.20
2022-11-07T06:54:23.232Z,5.20
2022-11-07T06:55:23.207Z,5.40
2022-11-07T06:56:23.200Z,5.30
2022-11-07T06:57:23.192Z,5.20
2022-11-07T06:58:23.180Z,5.10
2022-11-07T06:59:23.201Z,5.40
2022-11-07T07:00:23.166Z,5.80
2022-11-07T07:01:23.237Z,5.20
2022-11-07T07:02:44.290Z,4.90
2022-11-07T07:03:25.138Z,5.30
2022-11-07T07:04:23.119Z,5.20
2022-11-07T07:05:23.141Z,5.00
2022-11-07T07:06:23.102Z,5.40
2022-11-07T07:07:23.095Z,5.10
2022-11-07T07:08:23.232Z,5.30
2022-11-07T07:09:23.083Z,5.20
2022-11-07T07:10:23.084Z,5.30
2022-11-07T07:11:23.060Z,5.20
2022-11-07T07:12:23.050Z,5.10
2022-11-07T07:13:23.042Z,5.60
2022-11-07T07:14:23.024Z,5.50
2022-11-07T07:15:23.035Z,5.70
2022-11-07T07:16:23.014Z,5.60
2022-11-07T07:17:23.002Z,6.00
2022-11-07T07:18:22.981Z,5.20
2022-11-07T07:19:22.985Z,5.30
2022-11-07T07:20:22.998Z,5.10
2022-11-07T07:21:22.961Z,5.20
2022-11-07T07:22:22.945Z,5.70
2022-11-07T07:23:22.953Z,5.30
2022-11-07T07:24:22.938Z,5.20
2022-11-07T07:25:22.943Z,5.30
2022-11-07T07:26:22.905Z,4.90
2022-11-07T07:27:22.989Z,5.20
2022-11-07T07:28:22.893Z,5.10
2022-11-07T07:29:22.892Z,4.70
2022-11-07T07:30:22.888Z,4.90
2022-11-07T07:31:22.869Z,4.80
2022-11-07T07:32:22.859Z,5.00
2022-11-07T07:33:22.850Z,5.20
2022-11-07T07:34:22.832Z,4.90
2022-11-07T07:35:22.851Z,5.20
2022-11-07T07:36:22.815Z,4.60
2022-11-07T07:37:22.817Z,5.00
2022-11-07T07:38:22.782Z,5.00
2022-11-07T07:39:22.786Z,4.50
2022-11-07T07:40:22.791Z,5.00
2022-11-07T07:41:22.759Z,4.90
2022-11-07T07:42:22.742Z,4.60
2022-11-07T07:43:22.820Z,4.80
2022-11-07T07:44:22.729Z,4.80
2022-11-07T07:45:22.741Z,4.70
2022-11-07T07:46:22.696Z,4.80
2022-11-07T07:47:22.692Z,4.90
2022-11-07T07:48:22.691Z,4.80
2022-11-07T07:49:22.687Z,4.80
2022-11-07T07:50:22.707Z,4.70
2022-11-07T07:51:22.666Z,5.10
2022-11-07T07:52:22.652Z,5.10
2022-11-07T07:53:22.635Z,4.70
2022-11-07T07:54:22.629Z,4.70
2022-11-07T07:55:22.649Z,4.30
2022-11-07T07:56:22.625Z,4.40
2022-11-07T07:57:22.609Z,4.60
2022-11-07T07:58:22.591Z,4.30
2022-11-07T07:59:22.662Z,4.30
2022-11-07T08:00:22.595Z,4.20
2022-11-07T08:01:22.683Z,4.00
2022-11-07T08:02:22.622Z,3.90
2022-11-07T08:03:22.535Z,4.20
2022-11-07T08:04:22.533Z,4.20
2022-11-07T08:05:22.542Z,4.10
2022-11-07T08:06:22.516Z,4.20
2022-11-07T08:07:22.494Z,4.20
2022-11-07T08:08:22.491Z,3.90
2022-11-07T08:09:22.485Z,3.80
2022-11-07T08:11:24.453Z,3.80
2022-11-07T08:12:22.458Z,3.40
2022-11-07T08:13:22.449Z,3.90
2022-11-07T08:14:22.472Z,3.50
2022-11-07T08:15:22.519Z,3.80
2022-11-07T08:16:22.420Z,3.40
2022-11-07T08:17:22.407Z,3.50
2022-11-07T08:18:22.393Z,3.60
2022-11-07T08:19:22.368Z,3.40
2022-11-07T08:20:22.397Z,3.50
2022-11-07T08:21:22.367Z,3.40
2022-11-07T08:22:22.351Z,3.30
2022-11-07T08:23:22.605Z,3.30
2022-11-07T08:24:22.338Z,3.30
2022-11-07T08:25:22.342Z,3.10
2022-11-07T08:26:22.316Z,3.40
2022-11-07T08:27:22.294Z,3.30
2022-11-07T08:28:22.295Z,3.20
2022-11-07T08:29:22.290Z,3.20
2022-11-07T08:30:22.293Z,3.10
2022-11-07T08:31:22.278Z,3.30
2022-11-07T08:32:22.257Z,3.30
2022-11-07T08:33:22.283Z,3.10
2022-11-07T08:34:22.239Z,3.00
2022-11-07T08:35:22.239Z,3.10
2022-11-07T08:36:22.225Z,3.30
2022-11-07T08:37:22.205Z,3.30
2022-11-07T08:38:22.209Z,3.00
2022-11-07T08:39:22.179Z,3.10
2022-11-07T08:40:22.191Z,3.20
2022-11-07T08:41:22.664Z,3.10
2022-11-07T08:42:23.160Z,2.70
2022-11-07T08:43:22.146Z,2.80
2022-11-07T08:44:22.143Z,3.10
2022-11-07T08:45:22.146Z,2.90
2022-11-07T08:46:22.123Z,3.00
2022-11-07T08:47:22.102Z,3.10
2022-11-07T08:48:22.102Z,2.70
2022-11-07T08:49:22.087Z,2.90
2022-11-07T08:50:22.097Z,2.80
2022-11-07T08:51:22.057Z,2.90
2022-11-07T08:52:22.055Z,3.00
2022-11-07T08:53:22.050Z,2.90
2022-11-07T08:54:22.050Z,2.90
2022-11-07T08:55:22.054Z,2.80
2022-11-07T08:56:22.026Z,2.80
2022-11-07T08:57:22.019Z,2.50
2022-11-07T08:58:27.273Z,3.00
2022-11-07T08:59:23.003Z,3.10
2022-11-07T09:00:22.000Z,2.70
2022-11-07T09:01:22.150Z,2.90
2022-11-07T09:03:44.177Z,3.10
2022-11-07T09:04:23.966Z,2.90
2022-11-07T09:05:21.946Z,2.60
2022-11-07T09:06:21.924Z,2.80
2022-11-07T09:07:21.907Z,2.70
2022-11-07T09:08:22.002Z,2.80
2022-11-07T09:09:21.883Z,2.90
2022-11-07T09:10:21.900Z,2.80
2022-11-07T09:11:21.870Z,3.10
2022-11-07T09:12:21.853Z,2.80
2022-11-07T09:13:21.843Z,2.50
2022-11-07T09:14:21.845Z,2.70
2022-11-07T09:15:21.831Z,2.80
2022-11-07T09:16:21.814Z,2.80
2022-11-07T09:17:21.806Z,3.10
2022-11-07T09:18:21.796Z,2.90
2022-11-07T09:19:21.776Z,2.80
2022-11-07T09:20:21.790Z,3.00
2022-11-07T09:21:22.902Z,2.60
2022-11-07T09:22:22.754Z,2.60
2022-11-07T09:23:21.735Z,2.70
2022-11-07T09:24:21.740Z,2.70
2022-11-07T09:25:21.751Z,2.80
2022-11-07T09:26:21.720Z,2.40
2022-11-07T09:27:21.708Z,2.60
2022-11-07T09:28:21.763Z,2.70
2022-11-07T09:29:21.691Z,2.50
2022-11-07T09:30:21.754Z,2.40
2022-11-07T09:31:21.657Z,2.60
2022-11-07T09:32:43.262Z,2.70
2022-11-07T09:33:23.650Z,2.50
2022-11-07T09:34:21.640Z,2.70
2022-11-07T09:35:21.651Z,2.30
2022-11-07T09:36:21.612Z,2.70
2022-11-07T09:37:21.620Z,2.50
2022-11-07T09:38:21.615Z,2.50
2022-11-07T09:39:21.587Z,2.40
2022-11-07T09:40:21.711Z,2.50
2022-11-07T09:41:21.578Z,2.50
2022-11-07T09:42:21.565Z,2.40
2022-11-07T09:43:21.555Z,2.40
2022-11-07T09:44:23.454Z,2.30
2022-11-07T09:45:22.559Z,2.70
2022-11-07T09:46:21.528Z,2.50
2022-11-07T09:47:21.517Z,2.30
2022-11-07T09:48:21.556Z,2.50
2022-11-07T09:49:21.497Z,2.40
2022-11-07T09:50:21.515Z,2.50
2022-11-07T09:51:21.474Z,2.70
2022-11-07T09:52:21.467Z,2.60
2022-11-07T09:53:21.471Z,2.50
2022-11-07T09:54:21.445Z,2.60
2022-11-07T09:55:21.456Z,2.80
2022-11-07T09:56:21.431Z,2.80
2022-11-07T09:57:21.412Z,2.70
2022-11-07T09:58:21.412Z,2.90
2022-11-07T09:59:21.395Z,2.60
2022-11-07T10:00:21.490Z,2.30
2022-11-07T10:01:21.455Z,2.50
2022-11-07T10:02:21.412Z,2.80
2022-11-07T10:03:21.366Z,2.10
2022-11-07T10:04:26.079Z,2.40
2022-11-07T10:05:23.343Z,2.60
2022-11-07T10:06:24.356Z,2.40
2022-11-07T10:07:21.318Z,2.40
2022-11-07T10:08:21.318Z,2.40
2022-11-07T10:09:21.300Z,2.90
2022-11-07T10:10:21.346Z,2.60
2022-11-07T10:11:21.271Z,2.50
2022-11-07T10:12:21.297Z,2.30
2022-11-07T10:13:21.260Z,2.30
2022-11-07T10:14:21.240Z,2.50
2022-11-07T10:15:21.267Z,2.50
2022-11-07T10:16:21.222Z,2.30
2022-11-07T10:17:21.217Z,2.40
2022-11-07T10:18:21.195Z,2.40
2022-11-07T10:19:21.196Z,2.70
2022-11-07T10:20:24.759Z,2.40
2022-11-07T10:21:38.766Z,2.40
2022-11-07T10:22:23.154Z,2.50
2022-11-07T10:23:21.150Z,2.50
2022-11-07T10:24:21.151Z,2.20
2022-11-07T10:25:21.170Z,2.50
2022-11-07T10:26:21.115Z,2.70
2022-11-07T10:27:21.117Z,2.30
2022-11-07T10:28:21.113Z,2.20
2022-11-07T10:29:21.092Z,2.40
2022-11-07T10:30:21.107Z,2.50
2022-11-07T10:31:21.086Z,2.70
2022-11-07T10:32:21.065Z,2.40
2022-11-07T10:33:21.061Z,2.50
2022-11-07T10:34:21.049Z,2.50
2022-11-07T10:35:21.060Z,2.40
2022-11-07T10:36:21.030Z,4.30
2022-11-07T10:37:21.021Z,11.10
2022-11-07T10:38:21.002Z,33.30
2022-11-07T10:39:21.003Z,48.30
2022-11-07T10:40:21.014Z,60.60
2022-11-07T10:41:20.997Z,24.30
2022-11-07T10:42:20.961Z,74.10
2022-11-07T10:43:20.969Z,60.60
2022-11-07T10:45:21.959Z,33.00
2022-11-07T10:46:20.930Z,10.40
2022-11-07T10:47:20.921Z,4.20
2022-11-07T10:48:20.966Z,3.10
2022-11-07T10:49:20.900Z,3.10
2022-11-07T10:50:20.879Z,2.50
2022-11-07T10:51:21.043Z,2.70
2022-11-07T10:52:20.868Z,2.60
2022-11-07T10:53:20.864Z,2.60
2022-11-07T10:54:22.001Z,2.90
2022-11-07T10:55:20.841Z,2.50
2022-11-07T10:56:20.848Z,2.30
2022-11-07T10:57:20.823Z,2.40
2022-11-07T10:58:20.804Z,2.30
2022-11-07T10:59:20.806Z,2.60
2022-11-07T11:00:20.793Z,2.40
2022-11-07T11:01:20.826Z,2.40
2022-11-07T11:02:20.837Z,2.50
2022-11-07T11:03:20.758Z,2.50
2022-11-07T11:04:20.755Z,2.30
2022-11-07T11:05:20.743Z,2.30
2022-11-07T11:06:20.739Z,2.60
2022-11-07T11:07:25.625Z,2.60
2022-11-07T11:08:22.719Z,2.40
2022-11-07T11:09:20.704Z,2.80
2022-11-07T11:10:20.690Z,2.80
2022-11-07T11:11:20.697Z,2.30
2022-11-07T11:12:20.668Z,2.50
2022-11-07T11:13:20.656Z,2.50
2022-11-07T11:14:21.655Z,2.50
2022-11-07T11:15:20.650Z,2.20
2022-11-07T11:16:20.656Z,2.60
2022-11-07T11:17:20.726Z,2.20
2022-11-07T11:18:20.662Z,2.70
2022-11-07T11:19:20.630Z,2.30
2022-11-07T11:20:20.596Z,2.70
2022-11-07T11:21:20.607Z,2.30
2022-11-07T11:22:20.567Z,2.50
2022-11-07T11:23:20.571Z,2.70
2022-11-07T11:24:20.556Z,2.60
2022-11-07T11:25:20.554Z,2.50
2022-11-07T11:26:20.555Z,2.70
2022-11-07T11:27:20.531Z,2.20
2022-11-07T11:28:20.521Z,2.40
2022-11-07T11:29:20.505Z,2.50
2022-11-07T11:30:20.510Z,2.40
2022-11-07T11:31:20.501Z,2.50
2022-11-07T11:32:20.483Z,2.40
2022-11-07T11:33:20.469Z,2.30
2022-11-07T11:34:20.471Z,2.30
2022-11-07T11:35:20.453Z,2.40
2022-11-07T11:36:20.459Z,2.50
2022-11-07T11:37:20.430Z,2.30
2022-11-07T11:38:20.412Z,2.40
2022-11-07T11:39:20.411Z,2.50
2022-11-07T11:40:20.395Z,2.50
2022-11-07T11:41:20.407Z,2.20
2022-11-07T11:42:20.368Z,2.20
2022-11-07T11:43:20.371Z,2.60
2022-11-07T11:44:20.358Z,2.30
2022-11-07T11:45:20.347Z,2.10
2022-11-07T11:46:20.350Z,2.40
2022-11-07T11:47:20.329Z,2.90
2022-11-07T11:48:20.325Z,2.50
2022-11-07T11:49:20.316Z,2.10
2022-11-07T11:50:20.294Z,2.30
2022-11-07T11:51:20.305Z,2.30
2022-11-07T11:52:20.298Z,2.80
2022-11-07T11:53:20.283Z,2.30
2022-11-07T11:54:20.255Z,2.40
2022-11-07T11:55:20.258Z,2.80
2022-11-07T11:56:20.263Z,2.50
2022-11-07T11:57:20.233Z,2.20
2022-11-07T11:58:20.224Z,2.20
2022-11-07T11:59:20.215Z,2.40
2022-11-07T12:00:20.207Z,2.20
2022-11-07T12:01:20.237Z,2.70
2022-11-07T12:02:20.276Z,2.40
2022-11-07T12:03:20.274Z,2.50
2022-11-07T12:04:20.170Z,2.40
2022-11-07T12:05:20.156Z,2.40
2022-11-07T12:06:20.171Z,2.30
2022-11-07T12:07:20.139Z,2.60
2022-11-07T12:08:20.124Z,2.50
2022-11-07T12:09:20.135Z,2.20
2022-11-07T12:10:20.108Z,2.10
2022-11-07T12:11:20.102Z,2.20
2022-11-07T12:12:20.088Z,2.40
2022-11-07T12:13:20.073Z,2.40
2022-11-07T12:14:20.063Z,2.50
2022-11-07T12:15:20.050Z,2.40
2022-11-07T12:16:20.063Z,2.50
2022-11-07T12:17:20.043Z,2.50
2022-11-07T12:18:20.027Z,2.50
2022-11-07T12:19:20.016Z,2.30
2022-11-07T12:20:20.054Z,2.10
2022-11-07T12:21:20.005Z,2.40
2022-11-07T12:22:19.990Z,2.40
2022-11-07T12:23:20.023Z,2.40
2022-11-07T12:24:19.971Z,2.50
2022-11-07T12:25:19.956Z,2.30
2022-11-07T12:26:19.972Z,2.80
2022-11-07T12:27:24.095Z,2.40
2022-11-07T12:28:20.931Z,2.50
2022-11-07T12:29:19.952Z,2.30
2022-11-07T12:30:19.921Z,2.60
2022-11-07T12:31:19.928Z,2.80
2022-11-07T12:32:19.903Z,2.70
2022-11-07T12:33:19.915Z,2.80
2022-11-07T12:34:19.907Z,2.60
2022-11-07T12:35:19.871Z,2.50
2022-11-07T12:36:19.875Z,2.40
2022-11-07T12:37:19.850Z,2.70
2022-11-07T12:38:19.846Z,2.70
2022-11-07T12:39:19.836Z,2.70
2022-11-07T12:40:19.818Z,2.70
2022-11-07T12:41:19.850Z,2.60
2022-11-07T12:42:19.790Z,2.60
2022-11-07T12:43:19.907Z,2.60
2022-11-07T12:44:19.787Z,2.30
2022-11-07T12:45:19.765Z,2.60
2022-11-07T12:46:19.781Z,2.50
2022-11-07T12:47:19.756Z,2.40
2022-11-07T12:48:19.743Z,2.50
2022-11-07T12:49:19.739Z,2.40
2022-11-07T12:50:19.720Z,2.70
2022-11-07T12:51:19.815Z,2.50
2022-11-07T12:52:19.709Z,2.50
2022-11-07T12:53:19.971Z,2.30
2022-11-07T12:54:19.684Z,2.30
2022-11-07T12:55:19.678Z,2.30
2022-11-07T12:56:19.690Z,2.50
2022-11-07T12:57:19.665Z,2.30
2022-11-07T12:58:20.712Z,2.60
2022-11-07T12:59:52.705Z,2.60
2022-11-07T13:00:23.310Z,2.40
2022-11-07T13:01:20.666Z,2.60
2022-11-07T13:02:19.727Z,2.30
2022-11-07T13:03:19.794Z,2.30
2022-11-07T13:04:19.594Z,2.40
2022-11-07T13:05:19.569Z,2.20
2022-11-07T13:06:19.586Z,2.50
2022-11-07T13:07:19.557Z,2.60
2022-11-07T13:08:19.552Z,2.30
2022-11-07T13:09:19.540Z,2.50
2022-11-07T13:10:19.526Z,2.30
2022-11-07T13:11:19.533Z,2.40
2022-11-07T13:12:19.508Z,2.50
2022-11-07T13:13:19.637Z,2.40
2022-11-07T13:14:23.722Z,2.40
2022-11-07T13:15:20.479Z,2.60
2022-11-07T13:16:19.486Z,2.30
2022-11-07T13:17:19.443Z,2.40
2022-11-07T13:18:19.446Z,2.20
2022-11-07T13:19:19.435Z,2.40
2022-11-07T13:20:19.448Z,2.30
2022-11-07T13:21:19.426Z,2.30